CheckWX is a tool to help pilots better visualize weather data.  It is not intended as a substitute for an official pre-flight weather briefing.

06:06:34 UTC

KPPF METAR
Tri-City Airport
Parsons, Kansas, USA
Current

15 mins ago

KPPF 260552Z AUTO 01013G21KT 3SM -SN BR SCT010 SCT023 OVC033 01/00 A3021 RMK AO2 RAE16SNB16 SLP235 P0002 60005 T00110000 10044 20011 400610011 51023
Observed
Feb-26 @ 05:52 UTC
Wind
  • 010° at 13 KTS
  • Gusting to 21 KTS
Visibility
3 SM
Flight Rules
MVFR
Conditions
Light Snow, Mist
Cloud Levels
  • Scattered at 1,000' AGL
  • Scattered at 2,300' AGL
  • Overcast at 3,300' AGL
Temperature
C / 34°F
Dewpoint
C / 32°F
Humidity
93%
Altimeter
30.21" Hg
Pressure
1023.02 hPa
Current Rain
0.02"
Previous

30 mins ago

KPPF 260537Z AUTO 01012G24KT 6SM -SN BR FEW008 BKN022 OVC039 01/00 A3021 RMK AO2 RAE16SNB16 P0002 T00110000
Observed
Feb-26 @ 05:37 UTC
Wind
  • 010° at 12 KTS
  • Gusting to 24 KTS
Visibility
6 SM
Flight Rules
MVFR
Conditions
Light Snow, Mist
Cloud Levels
  • Few at 800' AGL
  • Broken at 2,200' AGL
  • Overcast at 3,900' AGL
Temperature
C / 34°F
Dewpoint
C / 32°F
Humidity
93%
Altimeter
30.21" Hg
Pressure
1023.02 hPa
Current Rain
0.02"
Previous

37 mins ago

KPPF 260530Z AUTO 01014G23KT 6SM -SN BR SCT011 BKN019 OVC035 01/00 A3021 RMK AO2 RAE16SNB16 P0002 T00110000
Observed
Feb-26 @ 05:30 UTC
Wind
  • 010° at 14 KTS
  • Gusting to 23 KTS
Visibility
6 SM
Flight Rules
MVFR
Conditions
Light Snow, Mist
Cloud Levels
  • Scattered at 1,100' AGL
  • Broken at 1,900' AGL
  • Overcast at 3,500' AGL
Temperature
C / 34°F
Dewpoint
C / 32°F
Humidity
93%
Altimeter
30.21" Hg
Pressure
1023.02 hPa
Current Rain
0.02"